Flight Track Log - Related Links

Times and Time Zones

All times are in EDT time to prevent confusion due to time zone crossing. See the SWA499 flight status page for this flight to view local times or setup timezone preferences in your user account.

Time Position Orientation Groundspeed Altitude Reporting Facility
EDT Latitude Longitude Course Direction KTS MPH feet Rate Location/Type
Mon 09:01:09 AM 41.8000 -87.7667 114° Southeast 139 160 2,200  Level Chicago TRACON
Mon 09:02:03 AM 41.7833 -87.7167 183° South 247 284 3,900 2,444 Climbing Chicago TRACON
Mon 09:03:51 AM 41.6594 -87.7267 179° South 273 314 8,800 3,071 Climbing Chicago Center
Mon 09:04:51 AM 41.5697 -87.7236 181° South 300 345 12,500 2,800 Climbing Chicago Center
Mon 09:05:51 AM 41.4739 -87.7258 181° South 328 377 14,400 2,450 Climbing Chicago Center
Mon 09:06:51 AM 41.3675 -87.7286 180° South 357 411 17,400 2,900 Climbing Chicago Center
Mon 09:07:51 AM 41.2550 -87.7286 176° South 388 447 20,200 2,700 Climbing Chicago Center
Mon 09:08:51 AM 41.1297 -87.7181 174° South 410 472 22,800 2,450 Climbing Chicago Center
Mon 09:09:51 AM 41.0067 -87.7017 174° South 428 493 25,100 2,250 Climbing Chicago Center
Mon 09:10:51 AM 40.8833 -87.6856 174° South 444 511 27,300 2,000 Climbing Chicago Center
Mon 09:11:51 AM 40.7539 -87.6669 174° South 456 525 29,100 1,650 Climbing Chicago Center
Mon 09:12:51 AM 40.6222 -87.6483 174° South 469 540 30,600 1,400 Climbing Chicago Center
Mon 09:13:51 AM 40.4842 -87.6303 174° South 482 555 31,900 1,200 Climbing Chicago Center
Mon 09:14:51 AM 40.3464 -87.6119 159° South 497 572 33,000 550 Climbing Chicago Center
Mon 09:15:51 AM 40.2308 -87.5525 156° South 529 609 33,000  Level Chicago Center
Mon 09:16:23 AM 40.1600 -87.5119 152° Southeast 528 608 33,000 913 Level Indianapolis Center
Mon 09:17:23 AM 40.0378 -87.4264 153° Southeast 520 598 34,400 1,350 Climbing Indianapolis Center
Mon 09:18:23 AM 39.9153 -87.3467 153° Southeast 500 575 35,700 1,250 Climbing Indianapolis Center
Mon 09:19:23 AM 39.7928 -87.2669 153° Southeast 500 575 36,900 1,350 Climbing Indianapolis Center
Mon 09:20:23 AM 39.6600 -87.1792 153° Southeast 492 566 38,400 1,050 Climbing Indianapolis Center
Mon 09:21:23 AM 39.5414 -87.1003 154° Southeast 477 549 39,000 300 Climbing Indianapolis Center
Mon 09:22:23 AM 39.4225 -87.0244 153° Southeast 477 549 39,000  Level Indianapolis Center
Mon 09:23:23 AM 39.3061 -86.9464 153° Southeast 482 555 39,000  Level Indianapolis Center
Mon 09:24:23 AM 39.1853 -86.8656 152° Southeast 477 549 39,000  Level Indianapolis Center
Mon 09:25:23 AM 39.0706 -86.7881 152° Southeast 477 549 39,000  Level Indianapolis Center
Mon 09:26:23 AM 38.9661 -86.7167 152° Southeast 477 549 39,000  Level Indianapolis Center
Mon 09:27:23 AM 38.8472 -86.6367 152° Southeast 477 549 39,000  Level Indianapolis Center
Mon 09:28:23 AM 38.7306 -86.5572 152° Southeast 477 549 39,000  Level Indianapolis Center
Mon 09:29:23 AM 38.6136 -86.4781 152° Southeast 483 556 39,000  Level Indianapolis Center
Mon 09:30:23 AM 38.4967 -86.3989 153° Southeast 483 556 39,000  Level Indianapolis Center
Mon 09:31:23 AM 38.3797 -86.3228 152° Southeast 483 556 39,000  Level Indianapolis Center
Mon 09:32:23 AM 38.2606 -86.2417 154° Southeast 483 556 39,000  Level Indianapolis Center
Mon 09:33:23 AM 38.1411 -86.1661 153° Southeast 478 550 39,000  Level Indianapolis Center
Mon 09:34:23 AM 38.0136 -86.0825 150° Southeast 478 550 39,000  Level Indianapolis Center
Mon 09:35:23 AM 37.8986 -85.9994 155° Southeast 483 556 39,000  Level Indianapolis Center
Mon 09:36:23 AM 37.7769 -85.9272 153° Southeast 483 556 39,000  Level Indianapolis Center
Mon 09:37:23 AM 37.6575 -85.8500 152° Southeast 483 556 39,000  Level Indianapolis Center
Mon 09:38:23 AM 37.5422 -85.7731 153° Southeast 478 550 39,000  Level Indianapolis Center
Mon 09:39:23 AM 37.4247 -85.6989 152° Southeast 478 550 39,000  Level Indianapolis Center
Mon 09:40:23 AM 37.3092 -85.6225 153° Southeast 478 550 39,000  Level Indianapolis Center
Mon 09:41:23 AM 37.2019 -85.5544 155° Southeast 473 544 39,000  Level Indianapolis Center
Mon 09:42:23 AM 37.0781 -85.4808 160° South 480 552 39,000  Level Indianapolis Center
Mon 09:43:23 AM 36.9475 -85.4228 166° South 470 541 39,000  Level Indianapolis Center
Mon 09:44:23 AM 36.8189 -85.3833 166° South 470 541 39,000  Level Indianapolis Center
Mon 09:45:23 AM 36.6922 -85.3442 166° South 471 542 39,000  Level Indianapolis Center
Mon 09:47:40 AM 36.4111 -85.2589 166° South 473 544 39,000  Level Atlanta Center
Mon 09:48:40 AM 36.2819 -85.2183 166° South 473 544 39,000  Level Atlanta Center
Mon 09:49:40 AM 36.1531 -85.1781 167° South 473 544 39,000  Level Atlanta Center
Mon 09:50:40 AM 36.0222 -85.1400 167° South 473 544 39,000  Level Atlanta Center
Mon 09:51:40 AM 35.8931 -85.1025 166° South 473 544 39,000  Level Atlanta Center
Mon 09:52:40 AM 35.7494 -85.0572 166° South 473 544 39,000  Level Atlanta Center
Mon 09:53:40 AM 35.6225 -85.0197 166° South 473 544 39,000  Level Atlanta Center
Mon 09:54:41 AM 35.4914 -84.9800 166° South 478 550 39,000  Level Atlanta Center
Mon 09:55:40 AM 35.3625 -84.9403 167° South 478 550 39,000  Level Atlanta Center
Mon 09:57:40 AM 35.1042 -84.8664 167° South 478 550 39,000  Level Atlanta Center
Mon 09:58:40 AM 34.9772 -84.8297 166° South 478 550 39,000  Level Atlanta Center
Mon 09:59:40 AM 34.8481 -84.7906 167° South 478 550 39,000  Level Atlanta Center
Mon 10:00:40 AM 34.7208 -84.7539 165° South 473 544 39,000  Level Atlanta Center
Mon 10:01:40 AM 34.5917 -84.7125 166° South 467 537 39,000  Level Atlanta Center
Mon 10:02:40 AM 34.4814 -84.6789 167° South 472 543 39,000  Level Atlanta Center
Mon 10:03:40 AM 34.3500 -84.6428 167° South 472 543 39,000  Level Atlanta Center
Mon 10:04:40 AM 34.2228 -84.6067 168° South 472 543 39,000  Level Atlanta Center
Mon 10:05:40 AM 34.0811 -84.5706 166° South 472 543 39,000  Level Atlanta Center
Mon 10:06:40 AM 33.9539 -84.5322 166° South 472 543 39,000  Level Atlanta Center
Mon 10:07:40 AM 33.8394 -84.4989 166° South 474 545 39,000  Level Atlanta Center
Mon 10:08:40 AM 33.7164 -84.4608 164° South 469 540 39,000  Level Atlanta Center
Mon 10:09:40 AM 33.5725 -84.4128 162° South 477 549 39,000  Level Atlanta Center
Mon 10:10:40 AM 33.4578 -84.3675 161° South 477 549 39,000  Level Atlanta Center
Mon 10:11:40 AM 33.3328 -84.3147 161° South 483 556 39,000  Level Atlanta Center
Mon 10:12:40 AM 33.2075 -84.2622 160° South 483 556 39,000  Level Atlanta Center
Mon 10:13:40 AM 33.0844 -84.2075 163° South 483 556 39,000  Level Atlanta Center
Mon 10:14:40 AM 32.9592 -84.1625 160° South 483 556 39,000  Level Atlanta Center
Mon 10:15:40 AM 32.8361 -84.1081 162° South 483 556 39,000  Level Atlanta Center
Mon 10:16:40 AM 32.7089 -84.0586 160° South 483 556 39,000  Level Atlanta Center
Mon 10:17:40 AM 32.5856 -84.0044 161° South 477 549 39,000  Level Atlanta Center
Mon 10:18:41 AM 32.4625 -83.9553 160° South 477 549 39,000  Level Atlanta Center
Mon 10:19:40 AM 32.3414 -83.9036 161° South 472 543 39,000  Level Atlanta Center
Mon 10:21:34 AM 32.0922 -83.8025 161° South 469 540 39,000  Level Jacksonville Center
Mon 10:22:34 AM 31.9717 -83.7522 161° South 469 540 39,000  Level Jacksonville Center
Mon 10:23:34 AM 31.8467 -83.7022 162° South 469 540 39,000  Level Jacksonville Center
Mon 10:24:34 AM 31.7194 -83.6544 160° South 469 540 39,000  Level Jacksonville Center
Mon 10:25:34 AM 31.6050 -83.6047 151° Southeast 480 552 39,000  Level Jacksonville Center
Mon 10:26:34 AM 31.4925 -83.5308 149° Southeast 481 554 39,000  Level Jacksonville Center
Mon 10:27:34 AM 31.3761 -83.4475 149° Southeast 476 548 39,000 -100 Level Jacksonville Center
Mon 10:28:34 AM 31.2617 -83.3664 148° Southeast 481 554 38,800 -1,300 Descending Jacksonville Center
Mon 10:29:34 AM 31.1511 -83.2858 148° Southeast 481 554 36,400 -2,500 Descending Jacksonville Center
Mon 10:30:34 AM 31.0386 -83.2053 148° Southeast 481 554 33,800 -2,350 Descending Jacksonville Center
Mon 10:31:34 AM 30.9303 -83.1275 149° Southeast 476 548 31,700 -2,269 Descending Jacksonville Center
Mon 10:32:33 AM 30.8114 -83.0450 148° Southeast 470 541 29,300 -2,269 Descending Jacksonville Center
Mon 10:33:33 AM 30.7050 -82.9675 150° Southeast 464 534 27,200 -1,140 Descending Jacksonville Center
Mon 10:34:34 AM 30.5986 -82.8950 148° Southeast 451 519 27,000 -350 Descending Jacksonville Center
Mon 10:35:33 AM 30.5003 -82.8250 148° Southeast 441 507 26,500 -706 Descending Jacksonville Center
Mon 10:36:33 AM 30.3939 -82.7481 149° Southeast 436 502 25,600 -744 Descending Jacksonville Center
Mon 10:37:34 AM 30.2850 -82.6711 149° Southeast 446 513 25,000 -298 Descending Jacksonville Center
Mon 10:38:34 AM 30.1764 -82.5947 149° Southeast 451 519 25,000  Level Jacksonville Center
Mon 10:39:33 AM 30.0697 -82.5206 151° Southeast 451 519 25,000  Level Jacksonville Center
Mon 10:40:34 AM 29.9631 -82.4514 162° South 451 519 25,000  Level Jacksonville Center
Mon 10:41:33 AM 29.8544 -82.4111 163° South 430 495 25,000  Level Jacksonville Center
Mon 10:42:33 AM 29.7436 -82.3711 157° South 418 481 25,000 -149 Level Jacksonville Center
Mon 10:43:34 AM 29.6347 -82.3192 155° Southeast 418 481 24,700 -550 Descending Jacksonville Center
Mon 10:44:33 AM 29.5406 -82.2694 157° South 418 481 23,900 -958 Descending Jacksonville Center
Mon 10:45:33 AM 29.4358 -82.2178 156° South 413 475 22,800 -1,537 Descending Jacksonville Center
Mon 10:46:34 AM 29.3311 -82.1636 156° South 413 475 20,800 -2,100 Descending Jacksonville Center
Mon 10:47:33 AM 29.2308 -82.1119 156° South 413 475 18,600 -2,269 Descending Jacksonville Center
Mon 10:48:33 AM 29.1261 -82.0583 156° South 408 470 16,300 -2,300 Descending Jacksonville Center
Mon 10:49:33 AM 29.0214 -82.0044 155° Southeast 408 470 14,000 -2,400 Descending Jacksonville Center
Mon 10:50:33 AM 28.9167 -81.9486 134° Southeast 413 475 11,500 -1,537 Descending Jacksonville Center
Mon 10:51:34 AM 28.8408 -81.8592 123° Southeast 407 468 10,900 -645 Descending Jacksonville Center
Mon 10:52:34 AM 28.7856 -81.7625 124° Southeast 380 437 10,200 -900 Descending Jacksonville Center
Mon 10:53:34 AM 28.7328 -81.6733 121° Southeast 358 412 9,100 -650 Descending Jacksonville Center
Mon 10:54:34 AM 28.6836 -81.5792 117° Southeast 347 399 8,900 -48 Descending Jacksonville Center
Mon 10:55:38 AM 28.6333 -81.4667 147° Southeast 336 387 9,000 48 Climbing Orlando TRACON
Mon 10:56:39 AM 28.5667 -81.4167 180° South 270 311 9,000 -248 Level Orlando TRACON
Mon 10:57:39 AM 28.5000 -81.4167 180° South 222 255 8,500 -900 Descending Orlando TRACON
Mon 10:58:39 AM 28.4333 -81.4167 180° South 224 258 7,200 -1,200 Descending Orlando TRACON
Mon 10:59:39 AM 28.3667 -81.4167 180° South 216 249 6,100 -1,190 Descending Orlando TRACON
Mon 11:00:40 AM 28.3167 -81.4167 168° South 218 251 4,800 -1,240 Descending Orlando TRACON
Mon 11:01:40 AM 28.2500 -81.4000 74° East 226 260 3,600 -857 Descending Orlando TRACON
Mon 11:02:46 AM 28.2667 -81.3333 24° Northeast 201 231 3,000 -667 Descending Orlando TRACON
Mon 11:03:46 AM 28.3000 -81.3167 360° North 171 197 2,200 -835 Descending Orlando TRACON
Mon 11:04:41 AM 28.3500 -81.3167 360° North 168 193 1,400 -835 Descending Orlando TRACON
Mon 11:05:41 AM 28.3833 -81.3167 360° North 140 161 600 -800 Descending Orlando TRACON

Login

Don't have an account? Register now (free) for customized features, flight alerts, and more!